createdAt,value
2023-03-12T00:02:07.626Z,99807.13
2023-03-12T00:05:28.647Z,99805.34
2023-03-12T00:09:04.960Z,99798.33
2023-03-12T00:12:41.452Z,99788.52
2023-03-12T00:16:19.705Z,99793.39
2023-03-12T00:19:56.707Z,99793.30
2023-03-12T00:23:35.017Z,99791.67
2023-03-12T00:27:30.897Z,99796.89
2023-03-12T00:30:49.841Z,99798.58
2023-03-12T00:34:27.393Z,99802.05
2023-03-12T00:38:05.638Z,99804.61
2023-03-12T00:41:42.492Z,99808.33
2023-03-12T00:45:20.444Z,99807.30
2023-03-12T00:48:57.842Z,99814.71
2023-03-12T00:52:36.188Z,99821.42
2023-03-12T00:56:13.641Z,99825.84
2023-03-12T00:59:51.011Z,99828.01
2023-03-12T01:03:28.911Z,99832.14
2023-03-12T01:07:06.238Z,99816.69
2023-03-12T01:10:44.278Z,99812.14
2023-03-12T01:14:21.568Z,99812.13
2023-03-12T01:17:59.689Z,99807.30
2023-03-12T01:21:36.941Z,99803.25
2023-03-12T01:25:14.980Z,99825.39
2023-03-12T01:28:52.589Z,99836.69
2023-03-12T01:32:30.473Z,99841.02
2023-03-12T01:36:18.219Z,99844.82
2023-03-12T01:39:45.498Z,99839.25
2023-03-12T01:43:23.055Z,99837.22
2023-03-12T01:47:01.112Z,99829.63
2023-03-12T01:50:38.835Z,99822.17
2023-03-12T01:54:22.118Z,99833.01
2023-03-12T01:57:57.635Z,99831.65
2023-03-12T02:01:31.811Z,99838.27
2023-03-12T02:05:48.415Z,99839.34
2023-03-12T02:08:51.224Z,99838.52
2023-03-12T02:12:27.127Z,99838.55
2023-03-12T02:16:07.312Z,99829.42
2023-03-12T02:20:16.374Z,99838.89
2023-03-12T02:23:43.799Z,99836.20
2023-03-12T02:26:59.573Z,99832.04
2023-03-12T02:30:36.836Z,99840.58
2023-03-12T02:34:32.535Z,99844.00
2023-03-12T02:37:53.956Z,99844.71
2023-03-12T02:41:38.201Z,99859.76
2023-03-12T02:45:07.073Z,99861.26
2023-03-12T02:48:45.097Z,99862.23
2023-03-12T02:52:22.082Z,99862.35
2023-03-12T02:55:59.509Z,99857.14
2023-03-12T02:59:55.881Z,99865.89
2023-03-12T03:03:14.995Z,99871.95
2023-03-12T03:06:52.763Z,99899.48
2023-03-12T03:10:30.099Z,99897.30
2023-03-12T03:14:07.725Z,99897.09
2023-03-12T03:18:04.933Z,99886.42
2023-03-12T03:21:23.363Z,99895.96
2023-03-12T03:25:00.558Z,99901.76
2023-03-12T03:28:38.592Z,99907.05
2023-03-12T03:32:16.092Z,99906.34
2023-03-12T03:35:55.590Z,99906.53
2023-03-12T03:39:31.346Z,99911.22
2023-03-12T03:43:09.266Z,99908.88
2023-03-12T03:46:47.992Z,99914.48
2023-03-12T03:50:24.594Z,99921.64
2023-03-12T03:54:02.233Z,99918.45
2023-03-12T03:57:39.757Z,99920.30
2023-03-12T04:01:17.354Z,99915.98
2023-03-12T04:04:59.306Z,99916.95
2023-03-12T04:08:35.511Z,99916.27
2023-03-12T04:12:10.736Z,99906.21
2023-03-12T04:15:49.910Z,99910.77
2023-03-12T04:19:26.295Z,99929.98
2023-03-12T04:23:03.300Z,99930.11
2023-03-12T04:26:41.516Z,99960.83
2023-03-12T04:30:18.874Z,99965.05
2023-03-12T04:33:56.656Z,99978.65
2023-03-12T04:37:34.426Z,99984.20
2023-03-12T04:41:15.002Z,99973.38
2023-03-12T04:44:52.803Z,99957.66
2023-03-12T04:48:27.778Z,99948.20
2023-03-12T04:52:04.982Z,99954.73
2023-03-12T04:55:43.061Z,99964.31
2023-03-12T04:59:19.886Z,99988.88
2023-03-12T05:02:57.809Z,99991.42
2023-03-12T05:06:35.829Z,99993.67
2023-03-12T05:10:13.841Z,99978.17
2023-03-12T05:13:50.887Z,99975.42
2023-03-12T05:17:28.888Z,99976.24
2023-03-12T05:21:09.939Z,100010.62
2023-03-12T05:24:44.020Z,100012.00
2023-03-12T05:28:22.023Z,100027.77
2023-03-12T05:31:59.319Z,100035.81
2023-03-12T05:35:36.795Z,100044.25
2023-03-12T05:39:14.737Z,100055.12
2023-03-12T05:42:53.522Z,100040.59
2023-03-12T05:46:30.224Z,100028.52
2023-03-12T05:50:09.642Z,100031.26
2023-03-12T05:53:45.047Z,100051.16
2023-03-12T05:57:23.050Z,100047.23
2023-03-12T06:01:00.512Z,100045.88
2023-03-12T06:04:38.396Z,100038.75
2023-03-12T06:08:15.844Z,100037.33
2023-03-12T06:11:53.645Z,100045.66
2023-03-12T06:15:31.894Z,100055.10
2023-03-12T06:19:14.353Z,100052.73
2023-03-12T06:22:46.405Z,100057.48
2023-03-12T06:26:25.647Z,100061.05
2023-03-12T06:30:01.749Z,100069.50
2023-03-12T06:33:39.793Z,100078.56
2023-03-12T06:37:17.251Z,100089.76
2023-03-12T06:41:03.745Z,100101.84
2023-03-12T06:44:33.257Z,100099.66
2023-03-12T06:48:10.523Z,100097.94
2023-03-12T06:51:47.674Z,100091.27
2023-03-12T06:55:25.701Z,100083.65
2023-03-12T06:59:03.117Z,100095.52
2023-03-12T07:02:41.258Z,100119.98
2023-03-12T07:06:22.210Z,100112.04
2023-03-12T07:09:56.180Z,100115.02
2023-03-12T07:13:34.063Z,100118.27
2023-03-12T07:17:11.616Z,100124.63
2023-03-12T07:20:49.402Z,100135.73
2023-03-12T07:24:27.077Z,100137.35
2023-03-12T07:28:05.470Z,100140.63
2023-03-12T07:31:42.610Z,100141.39
2023-03-12T07:35:20.329Z,100155.58
2023-03-12T07:38:58.342Z,100162.17
2023-03-12T07:42:35.395Z,100170.71
2023-03-12T07:46:13.213Z,100176.13
2023-03-12T07:49:54.484Z,100193.58
2023-03-12T07:53:28.391Z,100206.82
2023-03-12T07:57:07.112Z,100207.52
2023-03-12T08:00:44.535Z,100216.67
2023-03-12T08:04:21.840Z,100212.62
2023-03-12T08:07:59.370Z,100208.83
2023-03-12T08:11:37.665Z,100204.59
2023-03-12T08:15:15.138Z,100210.45
2023-03-12T08:18:52.355Z,100208.77
2023-03-12T08:22:30.268Z,100224.23
2023-03-12T08:26:08.133Z,100224.98
2023-03-12T08:29:45.369Z,100230.64
2023-03-12T08:33:22.809Z,100242.77
2023-03-12T08:37:01.589Z,100253.62
2023-03-12T08:40:38.363Z,100258.80
2023-03-12T08:44:16.017Z,100265.56
2023-03-12T08:47:53.550Z,100271.17
2023-03-12T08:51:31.638Z,100282.89
2023-03-12T08:55:09.397Z,100287.64
2023-03-12T08:58:46.684Z,100294.05
2023-03-12T09:02:24.442Z,100296.67
2023-03-12T09:06:17.103Z,100308.30
2023-03-12T09:09:39.378Z,100322.55
2023-03-12T09:13:17.100Z,100323.63
2023-03-12T09:16:55.015Z,100340.87
2023-03-12T09:20:32.545Z,100350.90
2023-03-12T09:24:11.420Z,100350.45
2023-03-12T09:27:47.977Z,100356.19
2023-03-12T09:31:25.993Z,100360.67
2023-03-12T09:35:03.990Z,100363.02
2023-03-12T09:38:40.917Z,100378.61
2023-03-12T09:42:37.396Z,100383.47
2023-03-12T09:45:57.358Z,100389.33
2023-03-12T09:49:40.951Z,100390.47
2023-03-12T09:53:30.297Z,100390.30
2023-03-12T09:56:52.851Z,100403.91
2023-03-12T10:00:47.555Z,100413.20
2023-03-12T10:04:27.086Z,100416.34
2023-03-12T10:07:49.600Z,100424.23
2023-03-12T10:11:45.106Z,100424.70
2023-03-12T10:15:34.837Z,100426.33
2023-03-12T10:19:04.004Z,100433.95
2023-03-12T10:22:44.052Z,100440.24
2023-03-12T10:26:03.936Z,100441.92
2023-03-12T10:29:49.232Z,100442.83
2023-03-12T10:33:13.793Z,100451.17
2023-03-12T10:36:46.378Z,100458.45
2023-03-12T10:40:28.175Z,100466.70
2023-03-12T10:44:06.913Z,100472.42
2023-03-12T10:47:39.398Z,100480.28
2023-03-12T10:51:14.807Z,100471.13
2023-03-12T10:54:54.005Z,100478.23
2023-03-12T10:58:36.519Z,100479.54
2023-03-12T11:02:29.785Z,100483.36
2023-03-12T11:05:51.865Z,100492.34
2023-03-12T11:09:22.632Z,100499.06
2023-03-12T11:13:22.499Z,100503.48
2023-03-12T11:16:38.186Z,100510.70
2023-03-12T11:20:21.949Z,100513.26
2023-03-12T11:23:59.636Z,100513.23
2023-03-12T11:27:42.284Z,100518.23
2023-03-12T11:31:16.210Z,100519.51
2023-03-12T11:34:50.312Z,100520.71
2023-03-12T11:38:53.589Z,100526.66
2023-03-12T11:42:25.740Z,100523.78
2023-03-12T11:46:00.959Z,100519.38
2023-03-12T11:49:29.217Z,100521.27
2023-03-12T11:53:12.912Z,100529.10
2023-03-12T11:57:00.861Z,100527.17
2023-03-12T12:00:14.883Z,100532.42
2023-03-12T12:03:57.561Z,100534.71
2023-03-12T12:08:03.097Z,100541.80
2023-03-12T12:11:11.655Z,100545.13
2023-03-12T12:15:00.515Z,100553.71
2023-03-12T12:18:37.044Z,100549.80
2023-03-12T12:22:30.869Z,100560.02
2023-03-12T12:26:07.519Z,100562.44
2023-03-12T12:29:45.050Z,100561.77
2023-03-12T12:32:52.431Z,100561.21
2023-03-12T12:36:32.670Z,100560.69
2023-03-12T12:40:17.031Z,100563.70
2023-03-12T12:43:50.865Z,100572.16
2023-03-12T12:47:47.149Z,100577.70
2023-03-12T12:54:48.793Z,100584.11
2023-03-12T12:58:20.538Z,100587.64
2023-03-12T13:01:55.048Z,100587.40
2023-03-12T13:05:44.661Z,100585.61
2023-03-12T13:09:34.570Z,100587.09
2023-03-12T13:12:52.930Z,100586.02
2023-03-12T13:16:22.207Z,100591.46
2023-03-12T13:20:11.285Z,100592.08
2023-03-12T13:24:14.111Z,100595.89
2023-03-12T13:27:25.364Z,100599.48
2023-03-12T13:30:53.963Z,100598.66
2023-03-12T13:34:46.159Z,100601.36
2023-03-12T13:38:12.657Z,100599.35
2023-03-12T13:41:52.468Z,100607.45
2023-03-12T13:45:29.978Z,100610.07
2023-03-12T13:49:06.014Z,100600.64
2023-03-12T13:52:50.822Z,100596.40
2023-03-12T13:56:19.846Z,100611.15
2023-03-12T13:59:53.662Z,100606.14
2023-03-12T14:03:40.618Z,100609.27
2023-03-12T14:07:25.536Z,100615.42
2023-03-12T14:10:52.655Z,100614.42
2023-03-12T14:14:49.518Z,100615.58
2023-03-12T14:18:14.473Z,100627.10
2023-03-12T14:21:44.900Z,100633.00
2023-03-12T14:25:37.437Z,100630.75
2023-03-12T14:29:00.400Z,100635.59
2023-03-12T14:32:34.787Z,100638.42
2023-03-12T14:36:19.078Z,100637.91
2023-03-12T14:39:54.317Z,100633.94
2023-03-12T14:43:32.330Z,100627.96
2023-03-12T14:47:07.717Z,100627.13
2023-03-12T14:50:41.953Z,100630.88
2023-03-12T14:54:21.132Z,100628.06
2023-03-12T14:58:18.076Z,100623.45
2023-03-12T15:01:39.761Z,100629.85
2023-03-12T15:05:19.142Z,100626.98
2023-03-12T15:08:49.848Z,100621.86
2023-03-12T15:12:33.717Z,100617.73
2023-03-12T15:16:06.465Z,100613.52
2023-03-12T15:19:43.399Z,100612.86
2023-03-12T15:23:23.814Z,100610.18
2023-03-12T15:26:58.278Z,100610.31
2023-03-12T15:30:38.385Z,100608.91
2023-03-12T15:34:26.422Z,100609.05
2023-03-12T15:37:53.711Z,100612.69
2023-03-12T15:41:49.754Z,100619.64
2023-03-12T15:45:16.056Z,100627.90
2023-03-12T15:48:51.336Z,100633.71
2023-03-12T15:52:27.912Z,100635.61
2023-03-12T15:56:06.303Z,100636.89
2023-03-12T15:59:36.750Z,100641.95
2023-03-12T16:03:19.622Z,100643.23
2023-03-12T16:06:53.776Z,100646.46
2023-03-12T16:10:39.527Z,100649.02
2023-03-12T16:14:15.402Z,100651.73
2023-03-12T16:17:45.396Z,100653.10
2023-03-12T16:21:22.938Z,100653.98
2023-03-12T16:25:19.783Z,100653.64
2023-03-12T16:28:38.036Z,100651.88
2023-03-12T16:32:17.689Z,100647.33
2023-03-12T16:35:53.980Z,100648.33
2023-03-12T16:39:33.499Z,100641.92
2023-03-12T16:43:17.938Z,100643.69
2023-03-12T16:46:47.402Z,100644.59
2023-03-12T16:50:24.678Z,100654.04
2023-03-12T16:54:10.838Z,100658.46
2023-03-12T16:57:44.414Z,100660.09
2023-03-12T17:01:20.253Z,100662.44
2023-03-12T17:04:55.513Z,100671.81
2023-03-12T17:08:32.322Z,100668.88
2023-03-12T17:12:20.119Z,100668.47
2023-03-12T17:16:06.836Z,100678.71
2023-03-12T17:19:25.868Z,100687.10
2023-03-12T17:23:04.511Z,100691.48
2023-03-12T17:26:42.653Z,100698.02
2023-03-12T17:30:19.351Z,100700.39
2023-03-12T17:33:56.221Z,100702.74
2023-03-12T17:37:34.947Z,100709.30
2023-03-12T17:41:25.583Z,100707.61
2023-03-12T17:44:49.050Z,100705.74
2023-03-12T17:48:28.572Z,100708.96
2023-03-12T17:52:04.656Z,100710.08
2023-03-12T17:55:42.596Z,100711.77
2023-03-12T17:59:19.979Z,100712.95
2023-03-12T18:02:58.029Z,100717.64
2023-03-12T18:06:36.236Z,100720.39
2023-03-12T18:10:13.576Z,100729.06
2023-03-12T18:13:50.668Z,100723.66
2023-03-12T18:17:28.626Z,100722.27
2023-03-12T18:21:06.172Z,100719.95
2023-03-12T18:25:03.052Z,100718.85
2023-03-12T18:28:22.710Z,100722.77
2023-03-12T18:31:59.215Z,100721.01
2023-03-12T18:35:36.952Z,100715.95
2023-03-12T18:39:14.576Z,100712.00
2023-03-12T18:42:51.920Z,100706.12
2023-03-12T18:46:29.827Z,100709.92
2023-03-12T18:50:09.771Z,100711.59
2023-03-12T18:53:46.588Z,100709.89
2023-03-12T18:57:22.585Z,100705.41
2023-03-12T19:01:02.102Z,100699.84
2023-03-12T19:04:37.970Z,100698.27
2023-03-12T19:08:16.158Z,100703.11
2023-03-12T19:11:53.412Z,100710.65
2023-03-12T19:15:31.778Z,100717.08
2023-03-12T19:19:09.240Z,100721.71
2023-03-12T19:22:46.541Z,100728.05
2023-03-12T19:26:23.840Z,100729.71
2023-03-12T19:30:01.835Z,100728.80
2023-03-12T19:33:39.448Z,100721.85
2023-03-12T19:37:18.095Z,100720.90
2023-03-12T19:40:56.307Z,100715.60
2023-03-12T19:44:36.324Z,100711.95
2023-03-12T19:48:12.363Z,100705.67
2023-03-12T19:51:47.860Z,100702.36
2023-03-12T19:55:25.217Z,100701.52
2023-03-12T19:59:02.940Z,100704.78
2023-03-12T20:02:41.570Z,100702.13
2023-03-12T20:06:18.389Z,100702.73
2023-03-12T20:10:15.296Z,100707.27
2023-03-12T20:13:34.373Z,100714.30
2023-03-12T20:17:12.548Z,100717.14
2023-03-12T20:20:49.531Z,100710.26
2023-03-12T20:24:26.927Z,100705.56
2023-03-12T20:28:04.679Z,100699.85
2023-03-12T20:31:48.131Z,100695.98
2023-03-12T20:35:20.143Z,100695.23
2023-03-12T20:38:57.566Z,100692.38
2023-03-12T20:42:35.057Z,100686.58
2023-03-12T20:46:31.521Z,100681.13
2023-03-12T20:49:50.434Z,100675.70
2023-03-12T20:53:28.066Z,100680.44
2023-03-12T20:57:05.843Z,100669.64
2023-03-12T21:00:44.382Z,100662.65
2023-03-12T21:04:21.413Z,100656.01
2023-03-12T21:07:58.959Z,100655.00
2023-03-12T21:11:37.560Z,100644.50
2023-03-12T21:15:14.434Z,100649.39
2023-03-12T21:18:58.354Z,100647.06
2023-03-12T21:22:31.744Z,100644.17
2023-03-12T21:26:09.569Z,100639.86
2023-03-12T21:29:50.832Z,100637.80
2023-03-12T21:33:22.539Z,100645.33
2023-03-12T21:37:00.032Z,100644.02
2023-03-12T21:40:38.263Z,100643.99
2023-03-12T21:44:16.584Z,100642.60
2023-03-12T21:47:54.180Z,100644.52
2023-03-12T21:51:30.758Z,100640.06
2023-03-12T21:55:09.367Z,100634.08
2023-03-12T21:58:46.246Z,100622.38
2023-03-12T22:02:23.538Z,100627.55
2023-03-12T22:06:02.311Z,100627.46
2023-03-12T22:09:39.192Z,100629.85
2023-03-12T22:13:17.495Z,100622.16
2023-03-12T22:16:54.808Z,100623.76
2023-03-12T22:20:34.751Z,100619.60
2023-03-12T22:24:10.964Z,100622.04
2023-03-12T22:27:47.452Z,100612.01
2023-03-12T22:31:27.741Z,100604.69
2023-03-12T22:35:02.793Z,100602.42
2023-03-12T22:38:40.508Z,100607.98
2023-03-12T22:42:18.474Z,100609.39
2023-03-12T22:45:55.592Z,100613.70
2023-03-12T22:49:34.310Z,100611.18
2023-03-12T22:53:11.073Z,100603.13
2023-03-12T22:56:48.875Z,100597.95
2023-03-12T23:00:26.781Z,100589.48
2023-03-12T23:04:08.150Z,100583.27
2023-03-12T23:07:42.102Z,100577.56
2023-03-12T23:11:21.102Z,100568.09
2023-03-12T23:14:59.587Z,100584.56
2023-03-12T23:18:35.456Z,100585.31
2023-03-12T23:22:13.058Z,100581.60
2023-03-12T23:25:58.628Z,100570.88
2023-03-12T23:29:30.621Z,100560.71
2023-03-12T23:33:05.580Z,100548.19
2023-03-12T23:36:44.719Z,100546.05
2023-03-12T23:40:20.661Z,100540.67
2023-03-12T23:43:59.224Z,100541.14
2023-03-12T23:47:36.121Z,100519.39
2023-03-12T23:51:38.397Z,100502.09
2023-03-12T23:54:51.456Z,100512.65
2023-03-12T23:58:29.935Z,100512.85
